sensor_id;sensor_type;location;lat;lon;timestamp;P1;durP1;ratioP1;P2;durP2;ratioP2
51862;SDS011;37900;52.996;6.278;2022-07-18T00:01:43;4.50;;;2.97;;
51862;SDS011;37900;52.996;6.278;2022-07-18T00:04:09;4.15;;;3.20;;
51862;SDS011;37900;52.996;6.278;2022-07-18T00:06:35;3.47;;;3.08;;
51862;SDS011;37900;52.996;6.278;2022-07-18T00:09:01;7.30;;;3.25;;
51862;SDS011;37900;52.996;6.278;2022-07-18T00:11:27;3.70;;;3.08;;
51862;SDS011;37900;52.996;6.278;2022-07-18T00:13:53;3.28;;;2.80;;
51862;SDS011;37900;52.996;6.278;2022-07-18T00:16:19;5.22;;;3.47;;
51862;SDS011;37900;52.996;6.278;2022-07-18T00:18:44;3.38;;;2.88;;
51862;SDS011;37900;52.996;6.278;2022-07-18T00:21:10;3.95;;;2.97;;
51862;SDS011;37900;52.996;6.278;2022-07-18T00:23:36;4.47;;;3.20;;
51862;SDS011;37900;52.996;6.278;2022-07-18T00:26:02;4.22;;;2.90;;
51862;SDS011;37900;52.996;6.278;2022-07-18T00:28:29;5.10;;;3.42;;
51862;SDS011;37900;52.996;6.278;2022-07-18T00:30:54;4.35;;;2.90;;
51862;SDS011;37900;52.996;6.278;2022-07-18T00:33:20;3.50;;;3.00;;
51862;SDS011;37900;52.996;6.278;2022-07-18T00:35:46;4.35;;;3.17;;
51862;SDS011;37900;52.996;6.278;2022-07-18T00:38:12;4.65;;;3.10;;
51862;SDS011;37900;52.996;6.278;2022-07-18T00:40:38;5.00;;;3.60;;
51862;SDS011;37900;52.996;6.278;2022-07-18T00:43:03;4.35;;;3.38;;
51862;SDS011;37900;52.996;6.278;2022-07-18T00:45:29;4.22;;;3.30;;
51862;SDS011;37900;52.996;6.278;2022-07-18T00:47:55;3.97;;;3.08;;
51862;SDS011;37900;52.996;6.278;2022-07-18T00:50:23;4.10;;;3.03;;
51862;SDS011;37900;52.996;6.278;2022-07-18T00:52:49;4.95;;;3.28;;
51862;SDS011;37900;52.996;6.278;2022-07-18T00:55:15;3.72;;;2.83;;
51862;SDS011;37900;52.996;6.278;2022-07-18T00:57:41;3.30;;;3.00;;
51862;SDS011;37900;52.996;6.278;2022-07-18T01:00:08;4.47;;;3.40;;
51862;SDS011;37900;52.996;6.278;2022-07-18T01:02:55;4.20;;;3.17;;
51862;SDS011;37900;52.996;6.278;2022-07-18T01:05:21;3.95;;;3.17;;
51862;SDS011;37900;52.996;6.278;2022-07-18T01:07:47;4.00;;;3.17;;
51862;SDS011;37900;52.996;6.278;2022-07-18T01:10:13;4.97;;;3.63;;
51862;SDS011;37900;52.996;6.278;2022-07-18T01:12:38;4.10;;;3.28;;
51862;SDS011;37900;52.996;6.278;2022-07-18T01:15:05;4.90;;;3.58;;
51862;SDS011;37900;52.996;6.278;2022-07-18T01:19:57;3.45;;;3.00;;
51862;SDS011;37900;52.996;6.278;2022-07-18T01:22:23;4.28;;;3.40;;
51862;SDS011;37900;52.996;6.278;2022-07-18T01:24:49;4.97;;;3.20;;
51862;SDS011;37900;52.996;6.278;2022-07-18T01:27:16;3.87;;;2.90;;
51862;SDS011;37900;52.996;6.278;2022-07-18T01:29:44;3.97;;;3.10;;
51862;SDS011;37900;52.996;6.278;2022-07-18T01:32:11;4.00;;;3.28;;
51862;SDS011;37900;52.996;6.278;2022-07-18T01:34:37;3.78;;;2.90;;
51862;SDS011;37900;52.996;6.278;2022-07-18T01:37:03;4.50;;;3.00;;
51862;SDS011;37900;52.996;6.278;2022-07-18T01:39:30;4.53;;;2.97;;
51862;SDS011;37900;52.996;6.278;2022-07-18T01:41:57;3.97;;;3.03;;
51862;SDS011;37900;52.996;6.278;2022-07-18T01:44:23;3.63;;;2.88;;
51862;SDS011;37900;52.996;6.278;2022-07-18T01:46:49;4.13;;;3.13;;
51862;SDS011;37900;52.996;6.278;2022-07-18T01:49:16;4.10;;;2.63;;
51862;SDS011;37900;52.996;6.278;2022-07-18T01:51:45;4.13;;;2.95;;
51862;SDS011;37900;52.996;6.278;2022-07-18T01:54:12;3.70;;;3.08;;
51862;SDS011;37900;52.996;6.278;2022-07-18T01:56:38;4.45;;;3.15;;
51862;SDS011;37900;52.996;6.278;2022-07-18T01:59:04;4.18;;;3.70;;
51862;SDS011;37900;52.996;6.278;2022-07-18T02:01:30;4.60;;;3.60;;
51862;SDS011;37900;52.996;6.278;2022-07-18T02:03:55;3.30;;;2.83;;
51862;SDS011;37900;52.996;6.278;2022-07-18T02:06:21;2.92;;;2.42;;
51862;SDS011;37900;52.996;6.278;2022-07-18T02:08:47;3.47;;;2.70;;
51862;SDS011;37900;52.996;6.278;2022-07-18T02:11:13;4.10;;;3.05;;
51862;SDS011;37900;52.996;6.278;2022-07-18T02:13:39;3.53;;;2.60;;
51862;SDS011;37900;52.996;6.278;2022-07-18T02:16:05;4.47;;;3.08;;
51862;SDS011;37900;52.996;6.278;2022-07-18T02:18:31;4.47;;;3.13;;
51862;SDS011;37900;52.996;6.278;2022-07-18T02:21:00;3.88;;;3.00;;
51862;SDS011;37900;52.996;6.278;2022-07-18T02:23:26;4.20;;;3.15;;
51862;SDS011;37900;52.996;6.278;2022-07-18T02:25:52;3.22;;;2.92;;
51862;SDS011;37900;52.996;6.278;2022-07-18T02:28:19;3.58;;;2.90;;
51862;SDS011;37900;52.996;6.278;2022-07-18T02:30:45;4.25;;;3.10;;
51862;SDS011;37900;52.996;6.278;2022-07-18T02:33:13;3.17;;;2.60;;
51862;SDS011;37900;52.996;6.278;2022-07-18T02:35:39;3.72;;;3.03;;
51862;SDS011;37900;52.996;6.278;2022-07-18T02:38:05;5.20;;;2.63;;
51862;SDS011;37900;52.996;6.278;2022-07-18T02:40:31;3.65;;;3.03;;
51862;SDS011;37900;52.996;6.278;2022-07-18T02:42:57;4.07;;;3.00;;
51862;SDS011;37900;52.996;6.278;2022-07-18T02:45:23;4.25;;;3.05;;
51862;SDS011;37900;52.996;6.278;2022-07-18T02:47:49;3.75;;;2.97;;
51862;SDS011;37900;52.996;6.278;2022-07-18T02:50:15;3.03;;;2.72;;
51862;SDS011;37900;52.996;6.278;2022-07-18T02:52:41;3.67;;;3.08;;
51862;SDS011;37900;52.996;6.278;2022-07-18T02:55:07;4.40;;;3.00;;
51862;SDS011;37900;52.996;6.278;2022-07-18T03:00:00;3.10;;;2.60;;
51862;SDS011;37900;52.996;6.278;2022-07-18T03:02:26;3.93;;;2.83;;
51862;SDS011;37900;52.996;6.278;2022-07-18T03:04:52;3.25;;;2.67;;
51862;SDS011;37900;52.996;6.278;2022-07-18T03:07:18;3.78;;;3.05;;
51862;SDS011;37900;52.996;6.278;2022-07-18T03:09:44;3.10;;;2.58;;
51862;SDS011;37900;52.996;6.278;2022-07-18T03:12:09;3.92;;;3.10;;
51862;SDS011;37900;52.996;6.278;2022-07-18T03:14:35;3.78;;;3.08;;
51862;SDS011;37900;52.996;6.278;2022-07-18T03:17:01;3.00;;;2.70;;
51862;SDS011;37900;52.996;6.278;2022-07-18T03:19:26;3.00;;;2.47;;
51862;SDS011;37900;52.996;6.278;2022-07-18T03:21:52;3.50;;;2.92;;
51862;SDS011;37900;52.996;6.278;2022-07-18T03:24:18;2.72;;;2.45;;
51862;SDS011;37900;52.996;6.278;2022-07-18T03:26:44;3.50;;;2.58;;
51862;SDS011;37900;52.996;6.278;2022-07-18T03:29:10;3.80;;;2.58;;
51862;SDS011;37900;52.996;6.278;2022-07-18T03:31:36;4.68;;;3.25;;
51862;SDS011;37900;52.996;6.278;2022-07-18T03:34:02;4.18;;;2.75;;
51862;SDS011;37900;52.996;6.278;2022-07-18T03:36:28;4.28;;;3.42;;
51862;SDS011;37900;52.996;6.278;2022-07-18T03:38:54;3.25;;;2.65;;
51862;SDS011;37900;52.996;6.278;2022-07-18T03:41:20;3.65;;;2.90;;
51862;SDS011;37900;52.996;6.278;2022-07-18T03:43:46;3.20;;;2.90;;
51862;SDS011;37900;52.996;6.278;2022-07-18T03:46:12;3.92;;;2.92;;
51862;SDS011;37900;52.996;6.278;2022-07-18T03:48:38;3.03;;;2.45;;
51862;SDS011;37900;52.996;6.278;2022-07-18T03:51:04;3.35;;;2.90;;
51862;SDS011;37900;52.996;6.278;2022-07-18T03:53:30;3.90;;;2.88;;
51862;SDS011;37900;52.996;6.278;2022-07-18T03:55:57;3.40;;;2.90;;
51862;SDS011;37900;52.996;6.278;2022-07-18T03:58:22;3.47;;;3.03;;
51862;SDS011;37900;52.996;6.278;2022-07-18T04:00:48;3.35;;;3.00;;
51862;SDS011;37900;52.996;6.278;2022-07-18T04:03:14;3.47;;;2.70;;
51862;SDS011;37900;52.996;6.278;2022-07-18T04:05:42;3.78;;;3.38;;
51862;SDS011;37900;52.996;6.278;2022-07-18T04:08:08;3.13;;;2.75;;
51862;SDS011;37900;52.996;6.278;2022-07-18T04:10:34;3.45;;;2.90;;
51862;SDS011;37900;52.996;6.278;2022-07-18T04:13:00;3.38;;;2.80;;
51862;SDS011;37900;52.996;6.278;2022-07-18T04:15:25;3.45;;;2.70;;
51862;SDS011;37900;52.996;6.278;2022-07-18T04:17:52;2.95;;;2.65;;
51862;SDS011;37900;52.996;6.278;2022-07-18T04:20:18;3.20;;;2.63;;
51862;SDS011;37900;52.996;6.278;2022-07-18T04:22:50;3.55;;;2.78;;
51862;SDS011;37900;52.996;6.278;2022-07-18T04:25:18;3.35;;;2.90;;
51862;SDS011;37900;52.996;6.278;2022-07-18T04:27:45;3.67;;;2.58;;
51862;SDS011;37900;52.996;6.278;2022-07-18T04:30:12;3.50;;;2.80;;
51862;SDS011;37900;52.996;6.278;2022-07-18T04:32:39;4.15;;;2.78;;
51862;SDS011;37900;52.996;6.278;2022-07-18T04:35:05;3.78;;;2.90;;
51862;SDS011;37900;52.996;6.278;2022-07-18T04:37:32;3.42;;;2.80;;
51862;SDS011;37900;52.996;6.278;2022-07-18T04:39:58;2.95;;;2.65;;
51862;SDS011;37900;52.996;6.278;2022-07-18T04:42:25;3.35;;;2.83;;
51862;SDS011;37900;52.996;6.278;2022-07-18T04:44:50;4.40;;;3.60;;
51862;SDS011;37900;52.996;6.278;2022-07-18T04:47:16;3.33;;;2.92;;
51862;SDS011;37900;52.996;6.278;2022-07-18T04:49:42;3.35;;;3.05;;
51862;SDS011;37900;52.996;6.278;2022-07-18T04:52:08;3.72;;;2.95;;
51862;SDS011;37900;52.996;6.278;2022-07-18T04:54:33;3.63;;;2.75;;
51862;SDS011;37900;52.996;6.278;2022-07-18T04:56:59;3.65;;;2.83;;
51862;SDS011;37900;52.996;6.278;2022-07-18T04:59:25;3.63;;;3.00;;
51862;SDS011;37900;52.996;6.278;2022-07-18T05:01:51;3.90;;;3.08;;
51862;SDS011;37900;52.996;6.278;2022-07-18T05:04:17;3.08;;;2.53;;
51862;SDS011;37900;52.996;6.278;2022-07-18T05:06:42;3.30;;;2.53;;
51862;SDS011;37900;52.996;6.278;2022-07-18T05:09:08;3.55;;;2.80;;
51862;SDS011;37900;52.996;6.278;2022-07-18T05:11:34;3.10;;;2.75;;
51862;SDS011;37900;52.996;6.278;2022-07-18T05:14:00;3.65;;;2.72;;
51862;SDS011;37900;52.996;6.278;2022-07-18T05:16:26;3.97;;;2.70;;
51862;SDS011;37900;52.996;6.278;2022-07-18T05:18:52;3.55;;;2.78;;
51862;SDS011;37900;52.996;6.278;2022-07-18T05:21:18;3.10;;;2.50;;
51862;SDS011;37900;52.996;6.278;2022-07-18T05:23:43;3.80;;;2.78;;
51862;SDS011;37900;52.996;6.278;2022-07-18T05:26:10;3.20;;;2.53;;
51862;SDS011;37900;52.996;6.278;2022-07-18T05:28:37;4.05;;;2.97;;
51862;SDS011;37900;52.996;6.278;2022-07-18T05:31:03;3.45;;;2.80;;
51862;SDS011;37900;52.996;6.278;2022-07-18T05:33:28;3.47;;;2.70;;
51862;SDS011;37900;52.996;6.278;2022-07-18T05:35:54;3.50;;;2.60;;
51862;SDS011;37900;52.996;6.278;2022-07-18T05:38:20;2.83;;;2.63;;
51862;SDS011;37900;52.996;6.278;2022-07-18T05:40:46;3.70;;;2.83;;
51862;SDS011;37900;52.996;6.278;2022-07-18T05:43:11;4.28;;;3.22;;
51862;SDS011;37900;52.996;6.278;2022-07-18T05:45:37;4.10;;;3.35;;
51862;SDS011;37900;52.996;6.278;2022-07-18T05:48:03;2.92;;;2.50;;
51862;SDS011;37900;52.996;6.278;2022-07-18T05:50:30;3.23;;;2.70;;
51862;SDS011;37900;52.996;6.278;2022-07-18T05:52:55;2.80;;;2.60;;
51862;SDS011;37900;52.996;6.278;2022-07-18T05:55:21;3.50;;;2.47;;
51862;SDS011;37900;52.996;6.278;2022-07-18T05:57:47;2.90;;;2.40;;
51862;SDS011;37900;52.996;6.278;2022-07-18T06:00:15;3.28;;;2.70;;
51862;SDS011;37900;52.996;6.278;2022-07-18T06:02:41;2.88;;;2.53;;
51862;SDS011;37900;52.996;6.278;2022-07-18T06:05:07;3.33;;;3.03;;
51862;SDS011;37900;52.996;6.278;2022-07-18T06:07:34;3.53;;;2.47;;
51862;SDS011;37900;52.996;6.278;2022-07-18T06:10:00;2.97;;;2.30;;
51862;SDS011;37900;52.996;6.278;2022-07-18T06:12:29;3.65;;;2.85;;
51862;SDS011;37900;52.996;6.278;2022-07-18T06:14:56;3.45;;;2.83;;
51862;SDS011;37900;52.996;6.278;2022-07-18T06:17:22;3.00;;;2.50;;
51862;SDS011;37900;52.996;6.278;2022-07-18T06:19:48;2.97;;;2.53;;
51862;SDS011;37900;52.996;6.278;2022-07-18T06:22:14;3.40;;;2.70;;
51862;SDS011;37900;52.996;6.278;2022-07-18T06:24:39;3.55;;;2.40;;
51862;SDS011;37900;52.996;6.278;2022-07-18T06:27:05;3.65;;;2.83;;
51862;SDS011;37900;52.996;6.278;2022-07-18T06:29:31;3.05;;;2.60;;
51862;SDS011;37900;52.996;6.278;2022-07-18T06:31:57;3.70;;;2.88;;
51862;SDS011;37900;52.996;6.278;2022-07-18T06:34:22;2.47;;;2.00;;
51862;SDS011;37900;52.996;6.278;2022-07-18T06:36:48;4.25;;;2.70;;
51862;SDS011;37900;52.996;6.278;2022-07-18T06:39:14;3.17;;;2.30;;
51862;SDS011;37900;52.996;6.278;2022-07-18T06:41:43;3.10;;;2.47;;
51862;SDS011;37900;52.996;6.278;2022-07-18T06:44:10;2.97;;;2.43;;
51862;SDS011;37900;52.996;6.278;2022-07-18T06:46:36;4.13;;;2.70;;
51862;SDS011;37900;52.996;6.278;2022-07-18T06:49:02;3.92;;;3.10;;
51862;SDS011;37900;52.996;6.278;2022-07-18T06:51:29;3.45;;;2.50;;
51862;SDS011;37900;52.996;6.278;2022-07-18T06:53:56;3.65;;;2.10;;
51862;SDS011;37900;52.996;6.278;2022-07-18T06:56:22;2.92;;;2.40;;
51862;SDS011;37900;52.996;6.278;2022-07-18T06:58:48;4.60;;;3.08;;
51862;SDS011;37900;52.996;6.278;2022-07-18T07:01:16;4.10;;;2.67;;
51862;SDS011;37900;52.996;6.278;2022-07-18T07:03:43;3.38;;;2.70;;
51862;SDS011;37900;52.996;6.278;2022-07-18T07:06:09;5.10;;;2.97;;
51862;SDS011;37900;52.996;6.278;2022-07-18T07:08:35;4.47;;;2.97;;
51862;SDS011;37900;52.996;6.278;2022-07-18T07:11:01;5.20;;;2.58;;
51862;SDS011;37900;52.996;6.278;2022-07-18T07:13:26;3.67;;;2.50;;
51862;SDS011;37900;52.996;6.278;2022-07-18T07:15:52;3.78;;;2.33;;
51862;SDS011;37900;52.996;6.278;2022-07-18T07:18:18;4.93;;;2.75;;
51862;SDS011;37900;52.996;6.278;2022-07-18T07:20:44;4.47;;;2.85;;
51862;SDS011;37900;52.996;6.278;2022-07-18T07:23:10;3.50;;;2.95;;
51862;SDS011;37900;52.996;6.278;2022-07-18T07:25:37;4.80;;;2.53;;
51862;SDS011;37900;52.996;6.278;2022-07-18T07:28:03;3.60;;;2.72;;
51862;SDS011;37900;52.996;6.278;2022-07-18T07:32:56;4.00;;;2.35;;
51862;SDS011;37900;52.996;6.278;2022-07-18T07:35:22;3.95;;;2.30;;
51862;SDS011;37900;52.996;6.278;2022-07-18T07:37:49;5.63;;;2.95;;
51862;SDS011;37900;52.996;6.278;2022-07-18T07:40:20;15.77;;;9.90;;
51862;SDS011;37900;52.996;6.278;2022-07-18T07:42:47;9.70;;;6.65;;
51862;SDS011;37900;52.996;6.278;2022-07-18T07:45:13;10.60;;;6.05;;
51862;SDS011;37900;52.996;6.278;2022-07-18T07:47:40;10.65;;;6.80;;
51862;SDS011;37900;52.996;6.278;2022-07-18T07:50:06;11.25;;;6.30;;
51862;SDS011;37900;52.996;6.278;2022-07-18T07:52:33;8.77;;;5.70;;
51862;SDS011;37900;52.996;6.278;2022-07-18T07:54:59;7.35;;;5.47;;
51862;SDS011;37900;52.996;6.278;2022-07-18T07:57:25;9.52;;;5.60;;
51862;SDS011;37900;52.996;6.278;2022-07-18T07:59:51;6.72;;;5.05;;
51862;SDS011;37900;52.996;6.278;2022-07-18T08:02:17;8.75;;;5.38;;
51862;SDS011;37900;52.996;6.278;2022-07-18T08:04:43;8.87;;;4.77;;
51862;SDS011;37900;52.996;6.278;2022-07-18T08:07:10;7.47;;;4.60;;
51862;SDS011;37900;52.996;6.278;2022-07-18T08:09:36;7.90;;;4.27;;
51862;SDS011;37900;52.996;6.278;2022-07-18T08:12:02;7.20;;;4.40;;
51862;SDS011;37900;52.996;6.278;2022-07-18T08:14:28;5.85;;;4.03;;
51862;SDS011;37900;52.996;6.278;2022-07-18T08:16:54;4.65;;;3.72;;
51862;SDS011;37900;52.996;6.278;2022-07-18T08:19:20;6.97;;;4.18;;
51862;SDS011;37900;52.996;6.278;2022-07-18T08:21:45;7.05;;;4.20;;
51862;SDS011;37900;52.996;6.278;2022-07-18T08:24:11;4.93;;;3.38;;
51862;SDS011;37900;52.996;6.278;2022-07-18T08:26:37;5.22;;;3.00;;
51862;SDS011;37900;52.996;6.278;2022-07-18T08:31:32;5.90;;;3.47;;
51862;SDS011;37900;52.996;6.278;2022-07-18T08:33:58;6.82;;;3.78;;
51862;SDS011;37900;52.996;6.278;2022-07-18T08:36:24;6.57;;;3.08;;
51862;SDS011;37900;52.996;6.278;2022-07-18T08:38:51;3.60;;;2.67;;
51862;SDS011;37900;52.996;6.278;2022-07-18T08:41:17;4.45;;;3.13;;
51862;SDS011;37900;52.996;6.278;2022-07-18T08:43:44;5.35;;;3.08;;
51862;SDS011;37900;52.996;6.278;2022-07-18T08:46:10;4.15;;;2.60;;
51862;SDS011;37900;52.996;6.278;2022-07-18T08:48:38;4.20;;;2.55;;
51862;SDS011;37900;52.996;6.278;2022-07-18T08:51:07;3.47;;;2.38;;
51862;SDS011;37900;52.996;6.278;2022-07-18T08:53:34;2.90;;;2.28;;
51862;SDS011;37900;52.996;6.278;2022-07-18T08:56:02;7.88;;;2.88;;
51862;SDS011;37900;52.996;6.278;2022-07-18T08:58:29;3.03;;;2.28;;
51862;SDS011;37900;52.996;6.278;2022-07-18T09:00:55;3.15;;;2.35;;
51862;SDS011;37900;52.996;6.278;2022-07-18T09:03:23;5.38;;;2.60;;
51862;SDS011;37900;52.996;6.278;2022-07-18T09:06:09;4.35;;;2.40;;
51862;SDS011;37900;52.996;6.278;2022-07-18T09:08:37;4.05;;;2.25;;
51862;SDS011;37900;52.996;6.278;2022-07-18T09:16:09;3.80;;;2.08;;
51862;SDS011;37900;52.996;6.278;2022-07-18T09:18:40;4.72;;;2.33;;
51862;SDS011;37900;52.996;6.278;2022-07-18T09:21:14;3.28;;;2.25;;
51862;SDS011;37900;52.996;6.278;2022-07-18T09:23:44;4.05;;;2.58;;
51862;SDS011;37900;52.996;6.278;2022-07-18T09:26:17;2.75;;;1.67;;
51862;SDS011;37900;52.996;6.278;2022-07-18T09:29:03;3.20;;;2.10;;
51862;SDS011;37900;52.996;6.278;2022-07-18T09:31:29;5.50;;;2.30;;
51862;SDS011;37900;52.996;6.278;2022-07-18T09:33:56;2.88;;;2.15;;
51862;SDS011;37900;52.996;6.278;2022-07-18T09:36:27;2.60;;;2.05;;
51862;SDS011;37900;52.996;6.278;2022-07-18T09:38:54;5.25;;;2.25;;
51862;SDS011;37900;52.996;6.278;2022-07-18T09:41:24;2.35;;;1.80;;
51862;SDS011;37900;52.996;6.278;2022-07-18T09:43:51;3.13;;;2.03;;
51862;SDS011;37900;52.996;6.278;2022-07-18T09:46:18;2.60;;;2.00;;
51862;SDS011;37900;52.996;6.278;2022-07-18T09:48:43;4.45;;;2.25;;
51862;SDS011;37900;52.996;6.278;2022-07-18T09:51:09;4.75;;;2.10;;
51862;SDS011;37900;52.996;6.278;2022-07-18T09:56:06;3.53;;;1.92;;
51862;SDS011;37900;52.996;6.278;2022-07-18T09:58:33;3.95;;;1.63;;
51862;SDS011;37900;52.996;6.278;2022-07-18T10:01:02;3.95;;;2.03;;
51862;SDS011;37900;52.996;6.278;2022-07-18T10:03:29;3.88;;;2.08;;
51862;SDS011;37900;52.996;6.278;2022-07-18T10:05:57;4.45;;;2.15;;
51862;SDS011;37900;52.996;6.278;2022-07-18T10:08:24;3.30;;;2.00;;
51862;SDS011;37900;52.996;6.278;2022-07-18T10:10:52;4.70;;;2.00;;
51862;SDS011;37900;52.996;6.278;2022-07-18T10:13:20;2.63;;;1.90;;
51862;SDS011;37900;52.996;6.278;2022-07-18T10:15:47;5.63;;;1.75;;
51862;SDS011;37900;52.996;6.278;2022-07-18T10:18:19;2.53;;;2.03;;
51862;SDS011;37900;52.996;6.278;2022-07-18T10:23:25;4.50;;;2.00;;
51862;SDS011;37900;52.996;6.278;2022-07-18T10:31:26;3.00;;;2.35;;
51862;SDS011;37900;52.996;6.278;2022-07-18T10:36:34;2.53;;;1.90;;
51862;SDS011;37900;52.996;6.278;2022-07-18T10:39:09;5.38;;;2.40;;
51862;SDS011;37900;52.996;6.278;2022-07-18T10:47:04;3.05;;;2.00;;
51862;SDS011;37900;52.996;6.278;2022-07-18T10:57:28;3.63;;;2.83;;
51862;SDS011;37900;52.996;6.278;2022-07-18T11:00:07;4.97;;;2.78;;
51862;SDS011;37900;52.996;6.278;2022-07-18T11:02:43;4.35;;;2.30;;
51862;SDS011;37900;52.996;6.278;2022-07-18T11:21:52;3.55;;;2.28;;
51862;SDS011;37900;52.996;6.278;2022-07-18T11:24:00;3.10;;;2.20;;
51862;SDS011;37900;52.996;6.278;2022-07-18T11:26:34;4.25;;;2.30;;
51862;SDS011;37900;52.996;6.278;2022-07-18T11:31:48;6.00;;;2.90;;
51862;SDS011;37900;52.996;6.278;2022-07-18T11:34:16;4.38;;;2.53;;
51862;SDS011;37900;52.996;6.278;2022-07-18T11:36:43;2.92;;;2.20;;
51862;SDS011;37900;52.996;6.278;2022-07-18T11:39:10;3.00;;;2.30;;
51862;SDS011;37900;52.996;6.278;2022-07-18T11:41:37;4.45;;;2.22;;
51862;SDS011;37900;52.996;6.278;2022-07-18T11:44:05;2.47;;;2.13;;
51862;SDS011;37900;52.996;6.278;2022-07-18T11:46:42;4.22;;;2.45;;
51862;SDS011;37900;52.996;6.278;2022-07-18T11:49:08;5.05;;;2.63;;
51862;SDS011;37900;52.996;6.278;2022-07-18T11:51:34;3.40;;;2.35;;
51862;SDS011;37900;52.996;6.278;2022-07-18T11:54:07;4.47;;;2.40;;
51862;SDS011;37900;52.996;6.278;2022-07-18T11:59:09;3.75;;;2.25;;
51862;SDS011;37900;52.996;6.278;2022-07-18T12:01:36;3.30;;;2.47;;
51862;SDS011;37900;52.996;6.278;2022-07-18T12:04:01;4.32;;;2.90;;
51862;SDS011;37900;52.996;6.278;2022-07-18T12:06:27;4.93;;;2.67;;
51862;SDS011;37900;52.996;6.278;2022-07-18T12:08:54;3.53;;;2.67;;
51862;SDS011;37900;52.996;6.278;2022-07-18T12:11:34;4.90;;;2.70;;
51862;SDS011;37900;52.996;6.278;2022-07-18T12:14:23;3.45;;;2.42;;
51862;SDS011;37900;52.996;6.278;2022-07-18T12:16:48;3.92;;;2.60;;
51862;SDS011;37900;52.996;6.278;2022-07-18T12:19:23;3.20;;;2.50;;
51862;SDS011;37900;52.996;6.278;2022-07-18T12:22:08;3.60;;;2.88;;
51862;SDS011;37900;52.996;6.278;2022-07-18T12:24:40;3.15;;;2.72;;
51862;SDS011;37900;52.996;6.278;2022-07-18T12:30:06;4.25;;;2.42;;
51862;SDS011;37900;52.996;6.278;2022-07-18T12:32:42;3.67;;;2.70;;
51862;SDS011;37900;52.996;6.278;2022-07-18T12:35:25;4.22;;;2.80;;
51862;SDS011;37900;52.996;6.278;2022-07-18T12:37:57;4.15;;;2.60;;
51862;SDS011;37900;52.996;6.278;2022-07-18T12:40:25;4.90;;;2.70;;
51862;SDS011;37900;52.996;6.278;2022-07-18T12:43:08;4.47;;;2.60;;
51862;SDS011;37900;52.996;6.278;2022-07-18T12:45:36;3.72;;;2.70;;
51862;SDS011;37900;52.996;6.278;2022-07-18T12:48:04;5.30;;;3.35;;
51862;SDS011;37900;52.996;6.278;2022-07-18T12:50:31;4.15;;;2.67;;
51862;SDS011;37900;52.996;6.278;2022-07-18T12:52:57;3.42;;;2.63;;
51862;SDS011;37900;52.996;6.278;2022-07-18T12:55:23;3.65;;;2.88;;
51862;SDS011;37900;52.996;6.278;2022-07-18T12:57:49;3.97;;;2.50;;
51862;SDS011;37900;52.996;6.278;2022-07-18T13:00:15;4.95;;;2.72;;
51862;SDS011;37900;52.996;6.278;2022-07-18T13:02:44;3.30;;;2.40;;
51862;SDS011;37900;52.996;6.278;2022-07-18T13:05:11;4.43;;;2.95;;
51862;SDS011;37900;52.996;6.278;2022-07-18T13:07:37;3.80;;;3.00;;
51862;SDS011;37900;52.996;6.278;2022-07-18T13:10:03;3.65;;;2.50;;
51862;SDS011;37900;52.996;6.278;2022-07-18T13:12:29;4.65;;;2.85;;
51862;SDS011;37900;52.996;6.278;2022-07-18T13:14:55;3.60;;;2.67;;
51862;SDS011;37900;52.996;6.278;2022-07-18T13:17:21;3.50;;;2.65;;
51862;SDS011;37900;52.996;6.278;2022-07-18T13:19:47;4.82;;;2.72;;
51862;SDS011;37900;52.996;6.278;2022-07-18T13:22:14;3.22;;;2.65;;
51862;SDS011;37900;52.996;6.278;2022-07-18T13:24:40;5.18;;;3.22;;
51862;SDS011;37900;52.996;6.278;2022-07-18T13:27:05;3.55;;;2.70;;
51862;SDS011;37900;52.996;6.278;2022-07-18T13:29:31;3.40;;;2.83;;
51862;SDS011;37900;52.996;6.278;2022-07-18T13:31:57;3.28;;;2.40;;
51862;SDS011;37900;52.996;6.278;2022-07-18T13:34:23;3.92;;;2.90;;
51862;SDS011;37900;52.996;6.278;2022-07-18T13:36:49;3.83;;;2.55;;
51862;SDS011;37900;52.996;6.278;2022-07-18T13:39:16;4.00;;;2.53;;
51862;SDS011;37900;52.996;6.278;2022-07-18T13:41:43;4.30;;;2.80;;
51862;SDS011;37900;52.996;6.278;2022-07-18T13:44:09;4.05;;;2.63;;
51862;SDS011;37900;52.996;6.278;2022-07-18T13:46:35;3.95;;;2.80;;
51862;SDS011;37900;52.996;6.278;2022-07-18T13:49:01;3.38;;;2.70;;
51862;SDS011;37900;52.996;6.278;2022-07-18T13:51:26;4.88;;;2.90;;
51862;SDS011;37900;52.996;6.278;2022-07-18T13:53:52;4.80;;;2.58;;
51862;SDS011;37900;52.996;6.278;2022-07-18T13:56:18;4.40;;;2.90;;
51862;SDS011;37900;52.996;6.278;2022-07-18T13:58:44;3.17;;;2.65;;
51862;SDS011;37900;52.996;6.278;2022-07-18T14:01:11;4.70;;;3.25;;
51862;SDS011;37900;52.996;6.278;2022-07-18T14:03:38;3.65;;;3.03;;
51862;SDS011;37900;52.996;6.278;2022-07-18T14:06:04;4.28;;;2.72;;
51862;SDS011;37900;52.996;6.278;2022-07-18T14:08:30;4.50;;;2.70;;
51862;SDS011;37900;52.996;6.278;2022-07-18T14:10:55;4.88;;;3.10;;
51862;SDS011;37900;52.996;6.278;2022-07-18T14:13:21;3.85;;;3.22;;
51862;SDS011;37900;52.996;6.278;2022-07-18T14:15:47;3.42;;;2.80;;
51862;SDS011;37900;52.996;6.278;2022-07-18T14:18:13;3.42;;;2.70;;
51862;SDS011;37900;52.996;6.278;2022-07-18T14:20:39;3.53;;;2.90;;
51862;SDS011;37900;52.996;6.278;2022-07-18T14:23:05;4.00;;;2.88;;
51862;SDS011;37900;52.996;6.278;2022-07-18T14:25:31;3.72;;;2.95;;
51862;SDS011;37900;52.996;6.278;2022-07-18T14:27:57;4.53;;;3.10;;
51862;SDS011;37900;52.996;6.278;2022-07-18T14:30:23;4.55;;;2.83;;
51862;SDS011;37900;52.996;6.278;2022-07-18T14:32:50;3.97;;;2.92;;
51862;SDS011;37900;52.996;6.278;2022-07-18T14:35:16;6.38;;;2.83;;
51862;SDS011;37900;52.996;6.278;2022-07-18T14:37:43;3.90;;;2.65;;
51862;SDS011;37900;52.996;6.278;2022-07-18T14:40:09;4.32;;;3.15;;
51862;SDS011;37900;52.996;6.278;2022-07-18T14:42:35;4.55;;;3.63;;
51862;SDS011;37900;52.996;6.278;2022-07-18T14:45:01;3.22;;;2.28;;
51862;SDS011;37900;52.996;6.278;2022-07-18T14:47:27;3.70;;;2.90;;
51862;SDS011;37900;52.996;6.278;2022-07-18T14:49:56;4.75;;;3.15;;
51862;SDS011;37900;52.996;6.278;2022-07-18T14:52:22;4.07;;;2.95;;
51862;SDS011;37900;52.996;6.278;2022-07-18T14:54:47;5.07;;;2.95;;
51862;SDS011;37900;52.996;6.278;2022-07-18T14:57:13;3.47;;;2.88;;
51862;SDS011;37900;52.996;6.278;2022-07-18T14:59:41;4.13;;;3.22;;
51862;SDS011;37900;52.996;6.278;2022-07-18T15:02:07;4.32;;;3.20;;
51862;SDS011;37900;52.996;6.278;2022-07-18T15:04:34;4.43;;;2.85;;
51862;SDS011;37900;52.996;6.278;2022-07-18T15:07:00;4.20;;;2.92;;
51862;SDS011;37900;52.996;6.278;2022-07-18T15:09:26;4.72;;;3.38;;
51862;SDS011;37900;52.996;6.278;2022-07-18T15:11:52;5.32;;;3.05;;
51862;SDS011;37900;52.996;6.278;2022-07-18T15:14:18;4.80;;;2.85;;
51862;SDS011;37900;52.996;6.278;2022-07-18T15:16:44;4.63;;;3.05;;
51862;SDS011;37900;52.996;6.278;2022-07-18T15:19:09;3.85;;;2.78;;
51862;SDS011;37900;52.996;6.278;2022-07-18T15:21:35;3.78;;;3.25;;
51862;SDS011;37900;52.996;6.278;2022-07-18T15:24:01;3.75;;;2.85;;
51862;SDS011;37900;52.996;6.278;2022-07-18T15:26:26;3.70;;;2.72;;
51862;SDS011;37900;52.996;6.278;2022-07-18T15:28:52;4.60;;;3.22;;
51862;SDS011;37900;52.996;6.278;2022-07-18T15:31:18;4.13;;;3.20;;
51862;SDS011;37900;52.996;6.278;2022-07-18T15:33:44;3.75;;;2.90;;
51862;SDS011;37900;52.996;6.278;2022-07-18T15:36:10;5.85;;;2.55;;
51862;SDS011;37900;52.996;6.278;2022-07-18T15:38:35;2.90;;;2.60;;
51862;SDS011;37900;52.996;6.278;2022-07-18T15:41:05;3.63;;;2.63;;
51862;SDS011;37900;52.996;6.278;2022-07-18T15:43:32;3.83;;;3.03;;
51862;SDS011;37900;52.996;6.278;2022-07-18T15:45:58;3.55;;;2.50;;
51862;SDS011;37900;52.996;6.278;2022-07-18T15:48:24;4.15;;;3.08;;
51862;SDS011;37900;52.996;6.278;2022-07-18T15:50:50;3.63;;;2.63;;
51862;SDS011;37900;52.996;6.278;2022-07-18T15:53:15;4.90;;;3.05;;